createdAt,value
2023-06-25T00:00:29.201Z,169.67
2023-06-25T00:01:02.130Z,167.33
2023-06-25T00:01:34.144Z,162.67
2023-06-25T00:02:06.541Z,160.00
2023-06-25T00:02:38.525Z,158.67
2023-06-25T00:03:10.667Z,158.33
2023-06-25T00:03:42.782Z,162.33
2023-06-25T00:04:14.973Z,162.00
2023-06-25T00:04:46.878Z,162.00
2023-06-25T00:05:18.867Z,163.67
2023-06-25T00:05:51.099Z,161.67
2023-06-25T00:06:23.373Z,161.33
2023-06-25T00:06:55.472Z,162.67
2023-06-25T00:07:27.500Z,163.00
2023-06-25T00:07:59.546Z,163.00
2023-06-25T00:08:31.443Z,162.33
2023-06-25T00:09:04.196Z,162.00
2023-06-25T00:09:36.156Z,161.00
2023-06-25T00:10:09.128Z,161.67
2023-06-25T00:10:41.312Z,161.00
2023-06-25T00:11:13.472Z,159.33
2023-06-25T00:11:45.411Z,156.67
2023-06-25T00:12:17.354Z,150.33
2023-06-25T00:12:49.322Z,146.33
2023-06-25T00:13:21.236Z,146.33
2023-06-25T00:13:54.980Z,147.00
2023-06-25T00:14:26.904Z,147.00
2023-06-25T00:14:58.850Z,147.00
2023-06-25T00:15:30.775Z,147.00
2023-06-25T00:16:02.716Z,146.67
2023-06-25T00:16:34.716Z,144.00
2023-06-25T00:17:06.833Z,139.00
2023-06-25T00:17:40.187Z,131.33
2023-06-25T00:18:12.142Z,126.00
2023-06-25T00:18:43.996Z,125.33
2023-06-25T00:19:18.602Z,128.33
2023-06-25T00:19:50.517Z,129.33
2023-06-25T00:20:25.237Z,128.33
2023-06-25T00:20:57.172Z,128.67
2023-06-25T00:21:29.584Z,129.33
2023-06-25T00:22:01.793Z,130.33
2023-06-25T00:22:33.765Z,131.33
2023-06-25T00:23:07.888Z,132.00
2023-06-25T00:23:40.352Z,132.67
2023-06-25T00:24:12.573Z,133.00
2023-06-25T00:24:44.499Z,133.00
2023-06-25T00:25:17.662Z,133.00
2023-06-25T00:25:49.572Z,132.00
2023-06-25T00:26:21.492Z,130.67
2023-06-25T00:26:53.386Z,128.67
2023-06-25T00:27:25.272Z,127.00
2023-06-25T00:27:59.286Z,126.00
2023-06-25T00:28:31.239Z,126.67
2023-06-25T00:29:04.525Z,127.00
2023-06-25T00:29:36.589Z,127.00
2023-06-25T00:30:09.079Z,127.00
2023-06-25T00:30:41.013Z,128.00
2023-06-25T00:31:16.252Z,129.67
2023-06-25T00:31:48.177Z,130.00
2023-06-25T00:32:20.289Z,129.67
2023-06-25T00:32:55.911Z,127.33
2023-06-25T00:33:28.133Z,127.33
2023-06-25T00:34:00.039Z,129.33
2023-06-25T00:34:31.951Z,131.33
2023-06-25T00:35:04.248Z,133.00
2023-06-25T00:35:51.394Z,133.33
2023-06-25T00:36:23.796Z,136.00
2023-06-25T00:36:55.752Z,137.00
2023-06-25T00:37:27.638Z,136.67
2023-06-25T00:38:02.624Z,133.67
2023-06-25T00:38:40.102Z,131.00
2023-06-25T00:39:12.769Z,127.33
2023-06-25T00:39:48.475Z,124.33
2023-06-25T00:40:20.449Z,123.33
2023-06-25T00:40:52.566Z,122.67
2023-06-25T00:41:28.223Z,121.67
2023-06-25T00:42:02.312Z,119.33
2023-06-25T00:42:42.541Z,117.33
2023-06-25T00:43:17.281Z,118.00
2023-06-25T00:43:49.195Z,119.00
2023-06-25T00:44:21.224Z,118.33
2023-06-25T00:44:53.219Z,119.00
2023-06-25T00:45:28.471Z,119.00
2023-06-25T00:46:01.406Z,119.67
2023-06-25T00:46:33.611Z,120.00
2023-06-25T00:47:05.669Z,120.00
2023-06-25T00:47:39.185Z,119.33
2023-06-25T00:48:11.172Z,115.67
2023-06-25T00:48:47.852Z,108.00
2023-06-25T00:49:20.163Z,105.67
2023-06-25T00:49:52.162Z,104.00
2023-06-25T00:50:24.864Z,104.67
2023-06-25T00:51:02.421Z,105.33
2023-06-25T00:51:38.351Z,106.33
2023-06-25T00:52:12.868Z,107.67
2023-06-25T00:52:44.887Z,108.67
2023-06-25T00:53:17.674Z,109.67
2023-06-25T00:53:49.538Z,110.00
2023-06-25T00:54:21.841Z,110.67
2023-06-25T00:54:53.717Z,111.00
2023-06-25T00:55:26.808Z,111.00
2023-06-25T00:55:58.773Z,111.00
2023-06-25T00:56:30.807Z,111.00
2023-06-25T00:57:05.265Z,110.33
2023-06-25T00:57:37.271Z,108.33
2023-06-25T00:58:09.271Z,107.67
2023-06-25T00:58:42.556Z,108.33
2023-06-25T00:59:14.840Z,109.00
2023-06-25T00:59:49.467Z,109.00
2023-06-25T01:00:21.461Z,109.00
2023-06-25T01:00:58.079Z,108.33
2023-06-25T01:01:46.460Z,104.33
2023-06-25T01:02:45.626Z,101.00
2023-06-25T01:03:29.951Z,100.00
2023-06-25T01:04:11.147Z,100.00
2023-06-25T01:04:54.489Z,100.00
2023-06-25T01:05:32.726Z,100.33
2023-06-25T01:06:30.494Z,100.67
2023-06-25T01:07:12.269Z,101.00
2023-06-25T01:07:46.403Z,100.67
2023-06-25T01:08:18.900Z,100.00
2023-06-25T01:08:52.309Z,100.00
2023-06-25T01:09:26.626Z,99.67
2023-06-25T01:09:59.144Z,99.00
2023-06-25T01:10:31.123Z,98.00
2023-06-25T01:11:04.515Z,98.00
2023-06-25T01:11:38.819Z,98.00
2023-06-25T01:12:10.697Z,99.00
2023-06-25T01:12:45.654Z,99.00
2023-06-25T01:13:17.538Z,99.67
2023-06-25T01:13:49.611Z,100.67
2023-06-25T01:14:23.165Z,101.00
2023-06-25T01:14:56.033Z,100.33
2023-06-25T01:15:27.961Z,100.33
2023-06-25T01:15:59.858Z,101.00
2023-06-25T01:16:32.464Z,101.00
2023-06-25T01:17:06.752Z,101.00
2023-06-25T01:17:43.251Z,101.33
2023-06-25T01:18:15.934Z,102.00
2023-06-25T01:19:02.639Z,106.67
2023-06-25T01:19:36.564Z,130.33
2023-06-25T01:20:12.998Z,141.33
2023-06-25T01:20:45.228Z,147.67
2023-06-25T01:21:19.849Z,157.33
2023-06-25T01:21:53.383Z,164.67
2023-06-25T01:22:33.057Z,155.33
2023-06-25T01:23:05.135Z,146.33
2023-06-25T01:23:38.011Z,144.33
2023-06-25T01:24:10.209Z,140.33
2023-06-25T01:24:45.889Z,137.33
2023-06-25T01:25:18.704Z,135.67
2023-06-25T01:25:51.148Z,134.33
2023-06-25T01:26:23.138Z,132.67
2023-06-25T01:27:00.949Z,130.00
2023-06-25T01:27:35.327Z,127.33
2023-06-25T01:28:07.321Z,125.00
2023-06-25T01:28:39.908Z,123.33
2023-06-25T01:29:12.310Z,121.33
2023-06-25T01:29:45.346Z,119.00
2023-06-25T01:30:19.082Z,117.33
2023-06-25T01:30:53.412Z,116.33
2023-06-25T01:31:32.924Z,115.00
2023-06-25T01:32:08.293Z,114.00
2023-06-25T01:32:45.615Z,113.00
2023-06-25T01:33:20.444Z,113.00
2023-06-25T01:33:52.694Z,112.00
2023-06-25T01:34:25.001Z,112.00
2023-06-25T01:34:57.003Z,112.00
2023-06-25T01:35:28.954Z,112.00
2023-06-25T01:36:00.837Z,112.00
2023-06-25T01:36:33.435Z,111.33
2023-06-25T01:37:07.515Z,111.00
2023-06-25T01:37:39.540Z,112.33
2023-06-25T01:38:11.836Z,116.67
2023-06-25T01:38:43.746Z,120.00
2023-06-25T01:39:17.393Z,121.00
2023-06-25T01:39:52.038Z,125.33
2023-06-25T01:40:24.220Z,132.00
2023-06-25T01:40:56.157Z,130.00
2023-06-25T01:41:28.235Z,128.67
2023-06-25T01:42:00.271Z,125.67
2023-06-25T01:42:32.151Z,121.33
2023-06-25T01:43:04.042Z,118.67
2023-06-25T01:43:35.994Z,117.00
2023-06-25T01:44:07.943Z,117.00
2023-06-25T01:44:40.428Z,118.00
2023-06-25T01:45:13.016Z,118.00
2023-06-25T01:45:44.966Z,118.00
2023-06-25T01:46:16.990Z,119.00
2023-06-25T01:46:48.936Z,119.00
2023-06-25T01:47:20.933Z,119.67
2023-06-25T01:47:52.941Z,122.00
2023-06-25T01:48:24.878Z,127.67
2023-06-25T01:48:56.808Z,141.00
2023-06-25T01:49:32.244Z,158.67
2023-06-25T01:50:06.202Z,171.33
2023-06-25T01:50:38.114Z,184.00
2023-06-25T01:51:10.063Z,196.67
2023-06-25T01:51:41.999Z,207.33
2023-06-25T01:52:14.381Z,209.67
2023-06-25T01:52:46.323Z,208.00
2023-06-25T01:53:19.229Z,201.00
2023-06-25T01:53:51.324Z,203.33
2023-06-25T01:54:23.271Z,211.00
2023-06-25T01:54:55.166Z,208.67
2023-06-25T01:55:27.142Z,203.00
2023-06-25T01:55:59.061Z,200.33
2023-06-25T01:56:30.988Z,199.00
2023-06-25T01:57:03.728Z,195.00
2023-06-25T01:57:35.674Z,198.33
2023-06-25T01:58:07.576Z,207.67
2023-06-25T01:58:39.503Z,211.00
2023-06-25T01:59:11.809Z,210.67
2023-06-25T01:59:43.749Z,212.00
2023-06-25T02:00:16.457Z,214.67
2023-06-25T02:00:48.948Z,215.00
2023-06-25T02:01:22.210Z,217.00
2023-06-25T02:01:55.032Z,217.33
2023-06-25T02:02:27.289Z,210.33
2023-06-25T02:02:59.335Z,208.33
2023-06-25T02:03:31.361Z,211.67
2023-06-25T02:04:03.377Z,224.33
2023-06-25T02:04:35.546Z,234.00
2023-06-25T02:05:07.771Z,239.33
2023-06-25T02:05:39.752Z,241.00
2023-06-25T02:06:11.706Z,238.33
2023-06-25T02:06:43.729Z,236.67
2023-06-25T02:07:15.703Z,236.00
2023-06-25T02:07:47.696Z,236.00
2023-06-25T02:08:19.975Z,236.67
2023-06-25T02:08:51.959Z,239.67
2023-06-25T02:09:23.984Z,242.67
2023-06-25T02:09:55.982Z,242.67
2023-06-25T02:10:29.971Z,239.00
2023-06-25T02:11:01.911Z,233.67
2023-06-25T02:11:33.824Z,232.33
2023-06-25T02:12:06.152Z,233.33
2023-06-25T02:12:38.081Z,233.67
2023-06-25T02:13:10.016Z,232.67
2023-06-25T02:13:42.087Z,232.00
2023-06-25T02:14:14.079Z,231.00
2023-06-25T02:14:45.967Z,230.33
2023-06-25T02:15:17.878Z,230.00
2023-06-25T02:15:49.860Z,229.00
2023-06-25T02:16:21.864Z,229.00
2023-06-25T02:16:53.825Z,228.67
2023-06-25T02:17:25.797Z,220.67
2023-06-25T02:17:58.000Z,201.33
2023-06-25T02:18:30.688Z,189.33
2023-06-25T02:19:02.598Z,186.00
2023-06-25T02:19:34.763Z,194.00
2023-06-25T02:20:07.643Z,201.00
2023-06-25T02:20:39.617Z,209.33
2023-06-25T02:21:11.831Z,222.67
2023-06-25T02:21:43.726Z,233.67
2023-06-25T02:22:15.670Z,240.33
2023-06-25T02:22:49.320Z,240.00
2023-06-25T02:23:21.315Z,237.67
2023-06-25T02:23:53.263Z,235.00
2023-06-25T02:24:25.358Z,233.33
2023-06-25T02:24:57.315Z,230.67
2023-06-25T02:25:29.315Z,223.00
2023-06-25T02:26:01.324Z,213.00
2023-06-25T02:26:33.374Z,212.00
2023-06-25T02:27:05.881Z,212.67
2023-06-25T02:27:37.823Z,213.33
2023-06-25T02:28:09.737Z,215.00
2023-06-25T02:28:41.824Z,218.67
2023-06-25T02:29:13.715Z,227.33
2023-06-25T02:29:45.635Z,231.00
2023-06-25T02:30:17.569Z,233.33
2023-06-25T02:30:49.527Z,236.33
2023-06-25T02:31:21.529Z,238.67
2023-06-25T02:31:53.652Z,246.00
2023-06-25T02:32:25.740Z,251.67
2023-06-25T02:32:57.777Z,257.67
2023-06-25T02:33:29.731Z,253.00
2023-06-25T02:34:01.635Z,248.00
2023-06-25T02:34:33.704Z,247.33
2023-06-25T02:35:05.940Z,246.33
2023-06-25T02:35:38.174Z,247.67
2023-06-25T02:36:10.237Z,255.00
2023-06-25T02:36:42.142Z,252.33
2023-06-25T02:37:16.355Z,249.67
2023-06-25T02:37:48.533Z,248.00
2023-06-25T02:38:20.478Z,247.33
2023-06-25T02:38:52.381Z,246.33
2023-06-25T02:39:24.407Z,244.00
2023-06-25T02:39:56.353Z,242.00
2023-06-25T02:40:31.206Z,241.67
2023-06-25T02:41:03.099Z,241.00
2023-06-25T02:41:35.085Z,241.00
2023-06-25T02:42:07.188Z,241.00
2023-06-25T02:42:39.659Z,241.33
2023-06-25T02:43:12.556Z,242.00
2023-06-25T02:43:44.487Z,241.00
2023-06-25T02:44:16.368Z,240.00
2023-06-25T02:44:48.286Z,239.00
2023-06-25T02:45:20.388Z,238.00
2023-06-25T02:45:52.376Z,235.67
2023-06-25T02:46:25.960Z,235.33
2023-06-25T02:46:57.904Z,237.00
2023-06-25T02:47:29.900Z,240.67
2023-06-25T02:48:01.933Z,244.33
2023-06-25T02:48:35.446Z,245.00
2023-06-25T02:49:07.570Z,246.00
2023-06-25T02:49:39.535Z,248.00
2023-06-25T02:50:11.540Z,250.67
2023-06-25T02:50:43.504Z,249.67
2023-06-25T02:51:15.429Z,249.00
2023-06-25T02:51:47.341Z,248.33
2023-06-25T02:52:19.312Z,248.00
2023-06-25T02:52:51.282Z,248.00
2023-06-25T02:53:23.237Z,247.67
2023-06-25T02:53:55.226Z,247.00
2023-06-25T02:54:27.248Z,246.33
2023-06-25T02:54:59.199Z,246.67
2023-06-25T02:55:31.249Z,248.00
2023-06-25T02:56:03.432Z,249.67
2023-06-25T02:56:35.329Z,249.67
2023-06-25T02:57:07.253Z,249.00
2023-06-25T02:57:39.223Z,249.00
2023-06-25T02:58:11.156Z,250.00
2023-06-25T02:58:43.049Z,250.00
2023-06-25T02:59:15.019Z,250.33
2023-06-25T02:59:46.965Z,251.33
2023-06-25T03:00:19.043Z,252.67
2023-06-25T03:00:51.260Z,257.33
2023-06-25T03:01:23.228Z,270.33
2023-06-25T03:01:55.194Z,281.67
2023-06-25T03:02:27.600Z,288.33
2023-06-25T03:02:59.707Z,293.67
2023-06-25T03:03:31.741Z,293.67
2023-06-25T03:04:03.763Z,291.00
2023-06-25T03:04:35.675Z,290.00
2023-06-25T03:05:07.944Z,289.33
2023-06-25T03:05:40.230Z,289.33
2023-06-25T03:06:12.556Z,291.67
2023-06-25T03:06:44.615Z,291.67
2023-06-25T03:07:16.542Z,292.33
2023-06-25T03:07:58.444Z,293.00
2023-06-25T03:08:30.409Z,291.00
2023-06-25T03:09:02.394Z,293.33
2023-06-25T03:09:34.338Z,297.00
2023-06-25T03:10:06.850Z,299.33
2023-06-25T03:10:41.541Z,312.67
2023-06-25T03:11:13.463Z,320.00
2023-06-25T03:11:45.412Z,316.33
2023-06-25T03:12:17.379Z,312.33
2023-06-25T03:12:49.357Z,308.33
2023-06-25T03:13:21.334Z,303.33
2023-06-25T03:13:53.367Z,300.67
2023-06-25T03:14:34.812Z,299.67
2023-06-25T03:15:08.128Z,298.00
2023-06-25T03:15:40.066Z,297.00
2023-06-25T03:16:11.997Z,296.00
2023-06-25T03:16:44.015Z,296.00
2023-06-25T03:17:16.060Z,296.00
2023-06-25T03:17:48.341Z,296.00
2023-06-25T03:18:20.278Z,296.33
2023-06-25T03:18:52.651Z,299.67
2023-06-25T03:19:24.618Z,307.33
2023-06-25T03:19:56.534Z,313.33
2023-06-25T03:20:28.477Z,310.00
2023-06-25T03:21:00.449Z,307.00
2023-06-25T03:21:32.379Z,305.67
2023-06-25T03:22:04.475Z,302.00
2023-06-25T03:22:36.580Z,288.67
2023-06-25T03:23:08.591Z,274.33
2023-06-25T03:23:40.740Z,265.67
2023-06-25T03:24:12.666Z,260.33
2023-06-25T03:24:44.595Z,260.67
2023-06-25T03:25:16.703Z,267.00
2023-06-25T03:25:48.611Z,264.67
2023-06-25T03:26:20.867Z,254.33
2023-06-25T03:26:52.883Z,246.67
2023-06-25T03:27:25.025Z,242.67
2023-06-25T03:27:57.020Z,239.33
2023-06-25T03:28:28.882Z,238.33
2023-06-25T03:29:00.845Z,233.33
2023-06-25T03:29:32.750Z,236.67
2023-06-25T03:30:07.995Z,244.67
2023-06-25T03:30:40.127Z,244.67
2023-06-25T03:31:12.152Z,242.00
2023-06-25T03:31:44.897Z,242.00
2023-06-25T03:32:16.911Z,245.33
2023-06-25T03:32:48.973Z,249.00
2023-06-25T03:33:21.078Z,251.00
2023-06-25T03:33:53.005Z,252.67
2023-06-25T03:34:24.928Z,255.00
2023-06-25T03:34:56.849Z,258.00
2023-06-25T03:35:28.761Z,260.33
2023-06-25T03:36:00.831Z,266.33
2023-06-25T03:36:33.143Z,276.67
2023-06-25T03:37:05.607Z,285.67
2023-06-25T03:37:37.559Z,287.33
2023-06-25T03:38:09.484Z,288.33
2023-06-25T03:38:41.444Z,290.00
2023-06-25T03:39:13.427Z,295.00
2023-06-25T03:39:45.410Z,295.00
2023-06-25T03:40:17.396Z,292.33
2023-06-25T03:40:49.490Z,292.33
2023-06-25T03:41:21.531Z,292.67
2023-06-25T03:41:53.404Z,295.00
2023-06-25T03:42:25.516Z,302.33
2023-06-25T03:42:57.462Z,312.33
2023-06-25T03:43:29.679Z,310.33
2023-06-25T03:44:01.774Z,307.67
2023-06-25T03:44:34.186Z,305.00
2023-06-25T03:45:06.924Z,302.67
2023-06-25T03:45:39.069Z,300.67
2023-06-25T03:46:11.176Z,301.00
2023-06-25T03:46:43.109Z,300.67
2023-06-25T03:47:15.131Z,301.67
2023-06-25T03:47:47.168Z,302.67
2023-06-25T03:48:19.300Z,304.00
2023-06-25T03:48:51.433Z,303.00
2023-06-25T03:49:23.431Z,301.67
2023-06-25T03:49:55.374Z,300.67
2023-06-25T03:50:27.435Z,299.67
2023-06-25T03:50:59.679Z,299.00
2023-06-25T03:51:31.605Z,297.67
2023-06-25T03:52:03.737Z,296.33
2023-06-25T03:52:35.730Z,294.67
2023-06-25T03:53:07.641Z,293.33
2023-06-25T03:53:40.044Z,292.33
2023-06-25T03:54:11.960Z,291.33
2023-06-25T03:54:43.934Z,291.00
2023-06-25T03:55:15.910Z,290.33
2023-06-25T03:55:47.887Z,289.00
2023-06-25T03:56:19.917Z,289.00
2023-06-25T03:56:51.867Z,289.00
2023-06-25T03:57:24.466Z,289.00
2023-06-25T03:57:58.969Z,289.00
2023-06-25T03:58:30.911Z,289.00
2023-06-25T03:59:03.104Z,289.00
2023-06-25T03:59:35.153Z,289.00
2023-06-25T04:00:07.788Z,289.00
2023-06-25T04:00:40.387Z,289.00
2023-06-25T04:01:12.333Z,288.67
2023-06-25T04:01:44.390Z,288.00
2023-06-25T04:02:16.535Z,288.00
2023-06-25T04:02:48.608Z,288.00
2023-06-25T04:03:20.580Z,287.00
2023-06-25T04:03:52.663Z,287.00
2023-06-25T04:04:24.762Z,285.67
2023-06-25T04:04:56.871Z,284.33
2023-06-25T04:05:28.895Z,284.00
2023-06-25T04:06:01.150Z,284.67
2023-06-25T04:06:33.138Z,284.00
2023-06-25T04:07:05.479Z,284.00
2023-06-25T04:07:37.456Z,284.00
2023-06-25T04:08:09.404Z,283.00
2023-06-25T04:08:41.700Z,283.00
2023-06-25T04:09:13.628Z,283.00
2023-06-25T04:09:45.544Z,283.33
2023-06-25T04:10:17.530Z,284.33
2023-06-25T04:10:49.592Z,286.00
2023-06-25T04:11:21.599Z,287.67
2023-06-25T04:11:53.543Z,288.33
2023-06-25T04:12:25.480Z,293.00
2023-06-25T04:12:57.581Z,297.33
2023-06-25T04:13:29.823Z,297.00
2023-06-25T04:14:01.928Z,298.00
2023-06-25T04:14:33.854Z,297.67
2023-06-25T04:15:06.304Z,296.67
2023-06-25T04:15:38.461Z,296.33
2023-06-25T04:16:10.636Z,296.33
2023-06-25T04:16:42.693Z,296.00
2023-06-25T04:17:14.617Z,296.00
2023-06-25T04:17:48.230Z,297.00
2023-06-25T04:18:20.380Z,298.67
2023-06-25T04:18:52.528Z,299.33
2023-06-25T04:19:24.443Z,300.00
2023-06-25T04:19:56.352Z,300.00
2023-06-25T04:20:29.251Z,299.00
2023-06-25T04:21:01.168Z,299.00
2023-06-25T04:21:33.089Z,298.00
2023-06-25T04:22:05.519Z,296.67
2023-06-25T04:22:37.461Z,295.33
2023-06-25T04:23:09.383Z,295.00
2023-06-25T04:23:41.313Z,295.00
2023-06-25T04:24:13.255Z,294.33
2023-06-25T04:24:45.211Z,295.00
2023-06-25T04:25:17.173Z,295.33
2023-06-25T04:25:49.399Z,296.00
2023-06-25T04:26:21.305Z,296.00
2023-06-25T04:26:53.320Z,296.00
2023-06-25T04:27:25.685Z,295.67
2023-06-25T04:27:57.717Z,295.00
2023-06-25T04:28:29.599Z,295.00
2023-06-25T04:29:01.569Z,295.00
2023-06-25T04:29:33.586Z,295.00
2023-06-25T04:30:06.208Z,295.00
2023-06-25T04:30:38.137Z,295.00
2023-06-25T04:31:10.043Z,295.00
2023-06-25T04:31:42.018Z,295.00
2023-06-25T04:32:14.107Z,295.00
2023-06-25T04:32:50.989Z,294.00
2023-06-25T04:33:23.048Z,294.00
2023-06-25T04:33:55.174Z,292.67
2023-06-25T04:34:27.325Z,288.33
2023-06-25T04:34:59.336Z,286.00
2023-06-25T04:35:32.511Z,285.00
2023-06-25T04:36:04.873Z,282.67
2023-06-25T04:36:36.795Z,278.33
2023-06-25T04:37:08.800Z,276.00
2023-06-25T04:37:40.785Z,277.00
2023-06-25T04:38:13.038Z,274.67
2023-06-25T04:38:44.989Z,267.00
2023-06-25T04:39:16.906Z,258.67
2023-06-25T04:39:48.821Z,248.33
2023-06-25T04:40:20.857Z,241.67
2023-06-25T04:40:52.902Z,234.33
2023-06-25T04:41:24.871Z,225.00
2023-06-25T04:41:56.920Z,223.00
2023-06-25T04:42:28.993Z,227.00
2023-06-25T04:43:00.930Z,218.00
2023-06-25T04:43:32.885Z,203.00
2023-06-25T04:44:05.203Z,199.33
2023-06-25T04:44:37.214Z,205.00
2023-06-25T04:45:09.742Z,201.00
2023-06-25T04:45:43.292Z,190.00
2023-06-25T04:46:15.304Z,183.00
2023-06-25T04:46:47.365Z,194.33
2023-06-25T04:47:19.463Z,192.00
2023-06-25T04:47:51.445Z,179.00
2023-06-25T04:48:23.388Z,169.33
2023-06-25T04:48:55.434Z,163.33
2023-06-25T04:49:27.530Z,160.67
2023-06-25T04:49:59.442Z,154.33
2023-06-25T04:50:31.358Z,151.00
2023-06-25T04:51:04.586Z,149.00
2023-06-25T04:51:36.619Z,148.00
2023-06-25T04:52:08.738Z,155.00
2023-06-25T04:52:40.792Z,160.67
2023-06-25T04:53:12.869Z,151.67
2023-06-25T04:53:44.896Z,144.33
2023-06-25T04:54:16.948Z,144.67
2023-06-25T04:54:49.307Z,142.00
2023-06-25T04:55:21.557Z,134.33
2023-06-25T04:55:53.535Z,130.00
2023-06-25T04:56:25.688Z,131.00
2023-06-25T04:56:57.709Z,126.67
2023-06-25T04:57:29.725Z,122.67
2023-06-25T04:58:01.724Z,118.00
2023-06-25T04:58:34.163Z,115.33
2023-06-25T04:59:06.194Z,116.00
2023-06-25T04:59:38.243Z,120.00
2023-06-25T05:00:10.830Z,132.33
2023-06-25T05:00:42.788Z,140.67
2023-06-25T05:01:14.798Z,143.67
2023-06-25T05:01:46.855Z,145.00
2023-06-25T05:02:18.940Z,145.67
2023-06-25T05:02:51.091Z,146.00
2023-06-25T05:03:23.230Z,146.00
2023-06-25T05:03:56.561Z,146.33
2023-06-25T05:04:28.714Z,147.67
2023-06-25T05:05:00.707Z,150.00
2023-06-25T05:05:33.741Z,151.33
2023-06-25T05:06:05.918Z,154.00
2023-06-25T05:06:37.831Z,155.00
2023-06-25T05:07:10.157Z,152.33
2023-06-25T05:07:42.169Z,144.00
2023-06-25T05:08:14.280Z,131.00
2023-06-25T05:08:46.415Z,116.33
2023-06-25T05:09:18.347Z,109.67
2023-06-25T05:09:50.343Z,114.67
2023-06-25T05:10:22.926Z,127.67
2023-06-25T05:10:55.007Z,133.00
2023-06-25T05:11:27.049Z,150.33
2023-06-25T05:11:59.116Z,170.67
2023-06-25T05:12:31.063Z,172.33
2023-06-25T05:13:05.318Z,167.00
2023-06-25T05:13:40.078Z,163.33
2023-06-25T05:14:13.305Z,161.67
2023-06-25T05:14:45.415Z,159.00
2023-06-25T05:15:17.953Z,153.00
2023-06-25T05:15:49.918Z,145.00
2023-06-25T05:16:21.972Z,136.67
2023-06-25T05:16:54.001Z,129.00
2023-06-25T05:17:27.566Z,130.33
2023-06-25T05:17:59.598Z,133.00
2023-06-25T05:18:31.898Z,134.67
2023-06-25T05:19:04.133Z,136.00
2023-06-25T05:19:36.240Z,135.33
2023-06-25T05:20:08.993Z,130.00
2023-06-25T05:20:41.147Z,123.00
2023-06-25T05:21:13.112Z,120.00
2023-06-25T05:21:45.194Z,122.00
2023-06-25T05:22:17.161Z,119.33
2023-06-25T05:22:49.094Z,113.33
2023-06-25T05:23:24.522Z,108.00
2023-06-25T05:24:04.892Z,108.67
2023-06-25T05:24:37.115Z,107.00
2023-06-25T05:25:09.855Z,113.00
2023-06-25T05:25:41.954Z,137.00
2023-06-25T05:26:13.905Z,168.67
2023-06-25T05:26:55.275Z,170.00
2023-06-25T05:27:27.270Z,156.00
2023-06-25T05:27:59.983Z,153.00
2023-06-25T05:28:32.807Z,150.67
2023-06-25T05:29:05.918Z,149.67
2023-06-25T05:29:37.882Z,148.00
2023-06-25T05:30:10.166Z,142.33
2023-06-25T05:30:42.204Z,135.67
2023-06-25T05:31:14.288Z,131.33
2023-06-25T05:31:47.572Z,130.33
2023-06-25T05:32:19.523Z,131.00
2023-06-25T05:32:51.488Z,132.00
2023-06-25T05:33:23.434Z,136.67
2023-06-25T05:33:55.592Z,139.67
2023-06-25T05:34:27.642Z,139.00
2023-06-25T05:34:59.602Z,136.67
2023-06-25T05:35:32.052Z,125.67
2023-06-25T05:36:04.624Z,120.67
2023-06-25T05:36:36.545Z,120.67
2023-06-25T05:37:09.117Z,117.00
2023-06-25T05:37:41.686Z,115.67
2023-06-25T05:38:13.678Z,115.33
2023-06-25T05:38:46.334Z,118.00
2023-06-25T05:39:18.310Z,120.00
2023-06-25T05:39:50.279Z,122.33
2023-06-25T05:40:22.240Z,123.33
2023-06-25T05:40:54.163Z,124.00
2023-06-25T05:41:26.081Z,124.00
2023-06-25T05:42:01.689Z,124.00
2023-06-25T05:42:33.663Z,125.00
2023-06-25T05:43:05.639Z,125.00
2023-06-25T05:43:37.621Z,125.00
2023-06-25T05:44:09.670Z,125.00
2023-06-25T05:44:41.618Z,124.33
2023-06-25T05:45:13.516Z,124.00
2023-06-25T05:45:45.553Z,125.00
2023-06-25T05:46:18.346Z,124.00
2023-06-25T05:46:50.368Z,121.33
2023-06-25T05:47:22.350Z,120.00
2023-06-25T05:47:54.340Z,118.00
2023-06-25T05:48:27.339Z,116.33
2023-06-25T05:48:59.252Z,115.33
2023-06-25T05:49:31.687Z,116.00
2023-06-25T05:50:04.394Z,117.00
2023-06-25T05:50:36.314Z,118.00
2023-06-25T05:51:08.486Z,120.67
2023-06-25T05:51:40.437Z,121.33
2023-06-25T05:52:12.392Z,122.00
2023-06-25T05:52:45.239Z,122.00
2023-06-25T05:53:17.230Z,122.00
2023-06-25T05:53:52.051Z,121.00
2023-06-25T05:54:24.034Z,117.33
2023-06-25T05:54:55.998Z,114.33
2023-06-25T05:55:31.619Z,112.33
2023-06-25T05:56:03.660Z,113.00
2023-06-25T05:56:35.663Z,114.00
2023-06-25T05:57:07.660Z,114.67
2023-06-25T05:57:39.647Z,115.00
2023-06-25T05:58:11.616Z,115.67
2023-06-25T05:58:43.785Z,117.00
2023-06-25T05:59:15.746Z,117.67
2023-06-25T05:59:47.660Z,118.00
2023-06-25T06:00:22.441Z,118.00
2023-06-25T06:00:54.519Z,118.00
2023-06-25T06:01:27.452Z,118.00
2023-06-25T06:01:59.498Z,119.33
2023-06-25T06:02:31.557Z,120.67
2023-06-25T06:03:03.572Z,121.67
2023-06-25T06:03:35.667Z,123.33
2023-06-25T06:04:07.676Z,124.67
2023-06-25T06:04:39.729Z,126.00
2023-06-25T06:05:11.638Z,126.67
2023-06-25T06:05:43.626Z,127.67
2023-06-25T06:06:15.540Z,129.00
2023-06-25T06:06:47.489Z,128.67
2023-06-25T06:07:19.517Z,128.00
2023-06-25T06:07:51.626Z,125.67
2023-06-25T06:08:23.862Z,121.67
2023-06-25T06:08:55.897Z,118.33
2023-06-25T06:09:28.249Z,116.67
2023-06-25T06:10:00.456Z,112.67
2023-06-25T06:10:32.701Z,106.00
2023-06-25T06:11:04.725Z,102.33
2023-06-25T06:11:36.687Z,103.00
2023-06-25T06:12:09.074Z,104.00
2023-06-25T06:12:40.996Z,106.33
2023-06-25T06:13:13.788Z,107.33
2023-06-25T06:13:46.007Z,108.00
2023-06-25T06:14:18.495Z,109.33
2023-06-25T06:14:52.834Z,119.33
2023-06-25T06:15:24.794Z,135.67
2023-06-25T06:15:56.780Z,145.67
2023-06-25T06:16:28.751Z,150.67
2023-06-25T06:17:00.764Z,154.00
2023-06-25T06:17:32.979Z,154.00
2023-06-25T06:18:04.934Z,153.67
2023-06-25T06:18:37.517Z,156.00
2023-06-25T06:19:12.910Z,158.67
2023-06-25T06:19:44.816Z,165.67
2023-06-25T06:20:16.705Z,171.00
2023-06-25T06:20:48.718Z,172.67
2023-06-25T06:21:20.675Z,172.33
2023-06-25T06:21:52.643Z,169.33
2023-06-25T06:22:24.596Z,167.33
2023-06-25T06:22:58.987Z,169.00
2023-06-25T06:23:30.937Z,169.33
2023-06-25T06:24:02.935Z,169.67
2023-06-25T06:24:34.879Z,174.00
2023-06-25T06:25:07.177Z,176.67
2023-06-25T06:25:39.402Z,176.33
2023-06-25T06:26:11.645Z,174.00
2023-06-25T06:26:43.663Z,171.67
2023-06-25T06:27:15.634Z,170.67
2023-06-25T06:27:47.950Z,171.67
2023-06-25T06:28:19.871Z,173.33
2023-06-25T06:28:51.827Z,175.67
2023-06-25T06:29:23.826Z,178.33
2023-06-25T06:29:55.770Z,178.00
2023-06-25T06:30:27.657Z,181.00
2023-06-25T06:30:59.614Z,183.33
2023-06-25T06:31:32.905Z,184.67
2023-06-25T06:32:05.518Z,184.67
2023-06-25T06:32:37.552Z,182.67
2023-06-25T06:33:09.575Z,183.33
2023-06-25T06:33:41.511Z,190.00
2023-06-25T06:34:13.472Z,196.67
2023-06-25T06:34:45.457Z,193.67
2023-06-25T06:35:17.422Z,193.33
2023-06-25T06:35:49.401Z,192.00
2023-06-25T06:36:21.375Z,191.67
2023-06-25T06:36:53.367Z,190.67
2023-06-25T06:37:25.295Z,192.00
2023-06-25T06:37:57.284Z,190.00
2023-06-25T06:38:29.327Z,188.00
2023-06-25T06:39:01.275Z,186.00
2023-06-25T06:39:34.200Z,182.67
2023-06-25T06:40:07.126Z,172.33
2023-06-25T06:40:39.093Z,159.33
2023-06-25T06:41:11.111Z,157.67
2023-06-25T06:41:43.005Z,154.33
2023-06-25T06:42:14.995Z,144.67
2023-06-25T06:42:46.957Z,144.67
2023-06-25T06:43:18.896Z,152.67
2023-06-25T06:43:50.855Z,155.67
2023-06-25T06:44:22.908Z,156.67
2023-06-25T06:44:54.931Z,157.33
2023-06-25T06:45:26.903Z,157.00
2023-06-25T06:45:58.844Z,151.67
2023-06-25T06:46:30.799Z,146.00
2023-06-25T06:47:02.763Z,146.00
2023-06-25T06:47:34.714Z,147.00